createdAt,value
2022-08-25T00:02:26.742Z,57.06
2022-08-25T00:05:32.233Z,57.46
2022-08-25T00:08:40.030Z,57.58
2022-08-25T00:11:45.294Z,58.20
2022-08-25T00:14:48.967Z,58.71
2022-08-25T00:17:52.783Z,58.88
2022-08-25T00:20:56.405Z,59.10
2022-08-25T00:24:03.407Z,58.88
2022-08-25T00:27:07.554Z,58.92
2022-08-25T00:30:15.873Z,59.03
2022-08-25T00:33:20.874Z,59.06
2022-08-25T00:36:24.482Z,59.09
2022-08-25T00:39:29.646Z,59.43
2022-08-25T00:42:33.380Z,59.59
2022-08-25T00:45:37.611Z,59.64
2022-08-25T00:48:44.689Z,60.29
2022-08-25T00:51:53.558Z,60.59
2022-08-25T00:55:08.005Z,60.56
2022-08-25T00:58:21.851Z,60.93
2022-08-25T01:01:25.827Z,61.07
2022-08-25T01:04:29.666Z,61.13
2022-08-25T01:07:33.593Z,61.39
2022-08-25T01:10:43.024Z,61.19
2022-08-25T01:13:56.981Z,61.63
2022-08-25T01:17:01.169Z,61.58
2022-08-25T01:20:29.181Z,61.90
2022-08-25T01:23:34.709Z,62.12
2022-08-25T01:26:38.409Z,62.35
2022-08-25T01:29:42.588Z,62.48
2022-08-25T01:32:46.950Z,62.86
2022-08-25T01:36:29.343Z,63.37
2022-08-25T01:39:37.043Z,63.61
2022-08-25T01:43:13.189Z,63.86
2022-08-25T01:51:07.453Z,64.63
2022-08-25T01:54:11.606Z,65.11
2022-08-25T01:57:17.950Z,65.59
2022-08-25T02:00:24.213Z,65.78
2022-08-25T02:03:29.947Z,66.02
2022-08-25T02:06:36.602Z,66.46
2022-08-25T02:09:41.251Z,66.83
2022-08-25T02:12:46.287Z,67.40
2022-08-25T02:15:56.452Z,67.65
2022-08-25T02:24:00.084Z,68.38
2022-08-25T02:27:04.459Z,68.84
2022-08-25T02:30:11.722Z,69.26
2022-08-25T02:33:15.440Z,69.70
2022-08-25T02:36:19.844Z,70.01
2022-08-25T02:39:23.633Z,70.15
2022-08-25T02:42:27.820Z,70.63
2022-08-25T02:45:33.225Z,71.04
2022-08-25T02:48:37.605Z,71.29
2022-08-25T02:51:41.290Z,71.75
2022-08-25T02:54:44.962Z,72.43
2022-08-25T02:57:49.054Z,72.72
2022-08-25T03:00:55.930Z,72.84
2022-08-25T03:04:00.933Z,73.17
2022-08-25T03:07:05.229Z,73.45
2022-08-25T03:10:13.557Z,73.90
2022-08-25T03:13:18.047Z,74.02
2022-08-25T03:16:23.625Z,74.38
2022-08-25T03:19:31.575Z,74.70
2022-08-25T03:22:35.302Z,74.97
2022-08-25T03:26:00.688Z,75.40
2022-08-25T03:29:06.016Z,75.81
2022-08-25T03:32:11.618Z,76.26
2022-08-25T03:35:15.726Z,76.75
2022-08-25T03:38:19.423Z,77.03
2022-08-25T03:41:28.987Z,77.32
2022-08-25T03:44:33.644Z,77.57
2022-08-25T03:47:39.500Z,77.66
2022-08-25T03:50:51.613Z,78.15
2022-08-25T03:53:56.404Z,78.46
2022-08-25T03:57:00.072Z,78.65
2022-08-25T04:00:04.863Z,79.01
2022-08-25T04:03:09.830Z,79.18
2022-08-25T04:06:13.876Z,79.44
2022-08-25T04:09:17.519Z,79.71
2022-08-25T04:12:21.083Z,80.04
2022-08-25T04:15:28.097Z,80.54
2022-08-25T04:18:35.241Z,81.11
2022-08-25T04:21:40.664Z,81.45
2022-08-25T04:24:44.328Z,82.04
2022-08-25T04:27:48.443Z,82.28
2022-08-25T04:30:52.308Z,82.65
2022-08-25T04:33:57.445Z,83.05
2022-08-25T04:37:03.344Z,83.18
2022-08-25T04:40:08.638Z,83.75
2022-08-25T04:43:12.635Z,83.94
2022-08-25T04:46:20.790Z,84.26
2022-08-25T04:49:25.966Z,84.70
2022-08-25T04:52:29.640Z,84.80
2022-08-25T04:55:33.352Z,85.01
2022-08-25T04:58:38.402Z,85.22
2022-08-25T05:01:43.790Z,85.46
2022-08-25T05:04:48.939Z,85.60
2022-08-25T05:07:52.585Z,85.84
2022-08-25T05:10:57.056Z,85.76
2022-08-25T05:14:03.290Z,85.80
2022-08-25T05:17:08.015Z,85.92
2022-08-25T05:20:13.462Z,86.08
2022-08-25T05:23:17.190Z,85.94
2022-08-25T05:26:23.276Z,85.89
2022-08-25T05:29:27.093Z,85.83
2022-08-25T05:32:30.727Z,85.89
2022-08-25T05:35:35.931Z,85.60
2022-08-25T05:38:41.033Z,85.63
2022-08-25T05:41:45.313Z,85.42
2022-08-25T05:44:48.877Z,85.31
2022-08-25T05:47:52.715Z,84.99
2022-08-25T05:51:00.491Z,84.39
2022-08-25T05:54:04.796Z,83.63
2022-08-25T05:57:09.301Z,83.11
2022-08-25T06:00:14.353Z,81.73
2022-08-25T06:03:17.630Z,80.29
2022-08-25T06:06:24.654Z,79.49
2022-08-25T06:09:28.547Z,78.48
2022-08-25T06:12:36.096Z,77.94
2022-08-25T06:15:39.689Z,77.65
2022-08-25T06:18:43.327Z,77.16
2022-08-25T06:21:48.285Z,76.80
2022-08-25T06:24:51.945Z,77.11
2022-08-25T06:27:56.503Z,76.80
2022-08-25T06:31:01.366Z,76.73
2022-08-25T06:34:06.091Z,76.35
2022-08-25T06:37:11.152Z,76.46
2022-08-25T06:40:16.657Z,75.50
2022-08-25T06:43:20.671Z,75.20
2022-08-25T06:46:35.570Z,74.72
2022-08-25T06:49:42.210Z,74.58
2022-08-25T06:52:47.172Z,74.41
2022-08-25T06:56:01.291Z,73.94
2022-08-25T06:59:10.342Z,72.71
2022-08-25T07:02:14.085Z,71.97
2022-08-25T07:05:33.687Z,71.91
2022-08-25T07:08:39.277Z,71.36
2022-08-25T07:11:44.359Z,70.35
2022-08-25T07:15:03.617Z,69.95
2022-08-25T07:18:13.180Z,69.53
2022-08-25T07:21:21.710Z,69.74
2022-08-25T07:24:29.394Z,68.70
2022-08-25T07:27:33.164Z,68.12
2022-08-25T07:30:36.742Z,68.34
2022-08-25T07:34:01.594Z,68.06
2022-08-25T07:37:05.867Z,67.21
2022-08-25T07:40:15.444Z,66.71
2022-08-25T07:43:20.306Z,66.19
2022-08-25T07:46:24.031Z,66.59
2022-08-25T07:49:35.932Z,65.56
2022-08-25T07:52:43.552Z,65.82
2022-08-25T07:55:48.788Z,65.22
2022-08-25T07:58:52.631Z,63.81
2022-08-25T08:01:56.294Z,63.26
2022-08-25T08:05:01.139Z,62.49
2022-08-25T08:08:05.746Z,62.18
2022-08-25T08:11:18.397Z,60.65
2022-08-25T08:14:22.335Z,61.12
2022-08-25T08:17:26.414Z,61.11
2022-08-25T08:20:32.454Z,60.66
2022-08-25T08:23:47.324Z,60.88
2022-08-25T08:26:58.770Z,60.56
2022-08-25T08:30:03.190Z,59.81
2022-08-25T08:33:11.723Z,60.27
2022-08-25T08:36:16.764Z,59.66
2022-08-25T08:39:20.474Z,58.10
2022-08-25T08:42:48.963Z,58.21
2022-08-25T08:45:54.695Z,56.97
2022-08-25T08:49:05.688Z,56.57
2022-08-25T08:52:14.858Z,56.50
2022-08-25T08:55:30.496Z,56.00
2022-08-25T08:58:44.553Z,56.40
2022-08-25T09:01:56.502Z,55.62
2022-08-25T09:05:07.070Z,55.13
2022-08-25T09:08:15.030Z,55.00
2022-08-25T09:11:36.667Z,53.74
2022-08-25T09:15:12.878Z,52.98
2022-08-25T09:18:28.064Z,51.96
2022-08-25T09:21:45.498Z,51.97
2022-08-25T09:25:08.338Z,52.00
2022-08-25T09:28:22.731Z,51.23
2022-08-25T09:31:33.092Z,51.57
2022-08-25T09:34:37.249Z,52.39
2022-08-25T09:37:40.984Z,52.60
2022-08-25T09:40:48.567Z,52.82
2022-08-25T09:43:55.620Z,53.13
2022-08-25T09:47:05.490Z,53.54
2022-08-25T09:50:19.133Z,53.07
2022-08-25T09:53:24.586Z,52.09
2022-08-25T09:56:32.495Z,51.25
2022-08-25T09:59:38.230Z,51.94
2022-08-25T10:02:44.674Z,51.50
2022-08-25T10:06:06.636Z,51.20
2022-08-25T10:09:24.171Z,51.70
2022-08-25T10:12:42.489Z,51.78
2022-08-25T10:15:48.593Z,51.65
2022-08-25T10:19:09.200Z,51.63
2022-08-25T10:22:24.916Z,52.36
2022-08-25T10:25:32.311Z,51.11
2022-08-25T10:28:48.272Z,50.94
2022-08-25T10:31:58.919Z,49.74
2022-08-25T10:35:17.111Z,49.81
2022-08-25T10:38:39.242Z,48.78
2022-08-25T10:42:02.436Z,48.50
2022-08-25T10:45:38.558Z,48.50
2022-08-25T10:49:00.372Z,48.48
2022-08-25T10:52:16.532Z,48.29
2022-08-25T10:55:30.684Z,48.34
2022-08-25T10:59:07.490Z,47.98
2022-08-25T11:03:05.177Z,46.49
2022-08-25T11:06:19.691Z,47.22
2022-08-25T11:09:32.192Z,47.62
2022-08-25T11:12:46.263Z,46.34
2022-08-25T11:16:18.780Z,46.79
2022-08-25T11:19:31.097Z,46.51
2022-08-25T11:22:47.071Z,45.64
2022-08-25T11:25:55.532Z,46.74
2022-08-25T11:29:11.397Z,46.93
2022-08-25T11:32:19.744Z,47.32
2022-08-25T11:35:34.085Z,46.28
2022-08-25T11:39:00.845Z,46.63
2022-08-25T11:42:24.755Z,45.50
2022-08-25T11:46:02.161Z,44.89
2022-08-25T11:49:35.711Z,45.56
2022-08-25T11:52:56.367Z,45.44
2022-08-25T11:56:05.619Z,45.92
2022-08-25T11:59:10.934Z,43.91
2022-08-25T12:02:34.966Z,44.13
2022-08-25T12:06:19.436Z,44.82
2022-08-25T12:09:25.308Z,45.60
2022-08-25T12:12:38.390Z,46.98
2022-08-25T12:16:02.439Z,45.60
2022-08-25T12:19:31.642Z,46.39
2022-08-25T12:22:58.396Z,47.03
2022-08-25T12:26:11.112Z,47.45
2022-08-25T12:29:28.902Z,48.26
2022-08-25T12:33:05.772Z,48.52
2022-08-25T12:36:12.732Z,48.38
2022-08-25T12:39:24.766Z,47.40
2022-08-25T12:42:36.444Z,46.70
2022-08-25T12:45:47.825Z,46.89
2022-08-25T12:49:03.747Z,47.76
2022-08-25T12:52:17.131Z,47.25
2022-08-25T12:55:23.867Z,46.99
2022-08-25T12:58:58.835Z,46.66
2022-08-25T13:02:54.228Z,46.68
2022-08-25T13:06:38.947Z,46.69
2022-08-25T13:10:22.170Z,47.16
2022-08-25T13:13:47.091Z,47.45
2022-08-25T13:16:55.797Z,46.85
2022-08-25T13:20:21.764Z,47.40
2022-08-25T13:23:31.904Z,46.19
2022-08-25T13:26:48.035Z,46.03
2022-08-25T13:29:55.988Z,44.97
2022-08-25T13:33:01.002Z,45.60
2022-08-25T13:36:36.678Z,45.53
2022-08-25T13:39:56.453Z,44.60
2022-08-25T13:43:11.740Z,44.40
2022-08-25T13:46:21.575Z,45.01
2022-08-25T13:49:27.901Z,44.66
2022-08-25T13:52:34.791Z,44.36
2022-08-25T13:55:52.246Z,44.49
2022-08-25T13:58:58.578Z,45.08
2022-08-25T14:02:02.490Z,46.00
2022-08-25T14:05:07.650Z,45.37
2022-08-25T14:08:34.462Z,44.28
2022-08-25T14:11:48.035Z,44.32
2022-08-25T14:15:01.867Z,45.25
2022-08-25T14:18:13.907Z,45.51
2022-08-25T14:21:22.043Z,45.46
2022-08-25T14:24:27.032Z,44.97
2022-08-25T14:27:35.971Z,44.75
2022-08-25T14:30:49.463Z,43.91
2022-08-25T14:34:00.814Z,44.44
2022-08-25T14:37:13.710Z,44.16
2022-08-25T14:40:21.410Z,44.12
2022-08-25T14:43:32.051Z,45.02
2022-08-25T14:46:42.900Z,44.62
2022-08-25T14:49:48.047Z,44.99
2022-08-25T14:52:52.360Z,44.57
2022-08-25T14:55:58.743Z,44.21
2022-08-25T14:59:05.262Z,43.81
2022-08-25T15:02:09.801Z,44.33
2022-08-25T15:05:19.186Z,43.86
2022-08-25T15:08:40.940Z,43.77
2022-08-25T15:11:50.760Z,44.36
2022-08-25T15:14:56.353Z,44.04
2022-08-25T15:18:04.882Z,44.07
2022-08-25T15:21:09.870Z,44.34
2022-08-25T15:24:17.446Z,44.21
2022-08-25T15:27:23.297Z,44.49
2022-08-25T15:30:30.997Z,44.49
2022-08-25T15:33:34.944Z,44.59
2022-08-25T15:36:39.738Z,45.22
2022-08-25T15:39:47.196Z,45.77
2022-08-25T15:42:50.941Z,45.87
2022-08-25T15:45:55.972Z,45.94
2022-08-25T15:48:59.940Z,45.72
2022-08-25T15:52:04.789Z,46.04
2022-08-25T15:55:11.234Z,46.04
2022-08-25T15:58:14.896Z,46.50
2022-08-25T16:01:24.783Z,45.94
2022-08-25T16:04:31.183Z,45.63
2022-08-25T16:07:35.020Z,45.58
2022-08-25T16:10:42.772Z,45.95
2022-08-25T16:13:47.711Z,46.06
2022-08-25T16:16:53.278Z,46.33
2022-08-25T16:20:02.323Z,46.06
2022-08-25T16:23:06.215Z,46.22
2022-08-25T16:26:12.959Z,46.20
2022-08-25T16:29:17.286Z,46.94
2022-08-25T16:32:22.251Z,47.08
2022-08-25T16:35:26.222Z,47.58
2022-08-25T16:38:29.926Z,47.22
2022-08-25T16:41:35.784Z,47.13
2022-08-25T16:44:40.127Z,47.18
2022-08-25T16:47:46.298Z,47.60
2022-08-25T16:50:49.839Z,47.13
2022-08-25T16:54:11.037Z,47.03
2022-08-25T16:57:15.185Z,47.52
2022-08-25T17:00:25.315Z,47.79
2022-08-25T17:03:34.135Z,47.69
2022-08-25T17:06:51.711Z,47.46
2022-08-25T17:09:58.087Z,48.12
2022-08-25T17:13:01.691Z,48.32
2022-08-25T17:16:06.510Z,48.26
2022-08-25T17:19:15.173Z,48.76
2022-08-25T17:22:18.810Z,48.63
2022-08-25T17:25:23.287Z,48.89
2022-08-25T17:28:31.488Z,48.99
2022-08-25T17:31:39.827Z,48.99
2022-08-25T17:34:45.231Z,49.46
2022-08-25T17:37:49.980Z,49.75
2022-08-25T17:40:55.263Z,49.82
2022-08-25T17:44:00.172Z,50.06
2022-08-25T17:47:03.818Z,50.40
2022-08-25T17:50:11.210Z,50.53
2022-08-25T17:53:17.374Z,51.07
2022-08-25T17:56:27.399Z,51.19
2022-08-25T17:59:32.436Z,51.48
2022-08-25T18:02:36.338Z,51.64
2022-08-25T18:05:45.138Z,51.84
2022-08-25T18:08:52.209Z,52.02
2022-08-25T18:11:58.476Z,52.27
2022-08-25T18:15:02.573Z,52.67
2022-08-25T18:18:07.035Z,52.77
2022-08-25T18:21:16.534Z,53.02
2022-08-25T18:24:20.146Z,53.30
2022-08-25T18:27:23.756Z,53.64
2022-08-25T18:30:29.778Z,53.91
2022-08-25T18:33:33.839Z,54.08
2022-08-25T18:36:40.662Z,54.41
2022-08-25T18:40:02.688Z,54.38
2022-08-25T18:43:11.910Z,54.54
2022-08-25T18:46:16.357Z,54.62
2022-08-25T18:49:20.521Z,55.03
2022-08-25T18:52:25.623Z,54.90
2022-08-25T18:55:33.554Z,55.34
2022-08-25T18:58:37.851Z,55.42
2022-08-25T19:01:43.468Z,55.61
2022-08-25T19:04:52.009Z,55.88
2022-08-25T19:07:57.045Z,56.24
2022-08-25T19:11:01.027Z,57.01
2022-08-25T19:14:05.119Z,57.14
2022-08-25T19:17:16.627Z,57.85
2022-08-25T19:20:21.673Z,58.22
2022-08-25T19:23:28.516Z,58.39
2022-08-25T19:26:34.513Z,58.66
2022-08-25T19:29:38.171Z,58.90
2022-08-25T19:32:44.746Z,59.40
2022-08-25T19:35:51.833Z,59.58
2022-08-25T19:39:00.586Z,59.96
2022-08-25T19:42:04.522Z,60.18
2022-08-25T19:45:11.939Z,60.30
2022-08-25T19:48:16.398Z,60.57
2022-08-25T19:51:21.772Z,60.75
2022-08-25T19:54:33.489Z,60.58
2022-08-25T19:57:42.653Z,61.04
2022-08-25T20:00:48.328Z,61.25
2022-08-25T20:03:55.343Z,61.21
2022-08-25T20:07:01.040Z,61.54
2022-08-25T20:10:14.074Z,61.51
2022-08-25T20:13:18.554Z,61.81
2022-08-25T20:16:23.645Z,61.79
2022-08-25T20:19:27.482Z,61.76
2022-08-25T20:22:34.554Z,61.91
2022-08-25T20:25:38.559Z,62.04
2022-08-25T20:28:43.746Z,62.08
2022-08-25T20:31:47.670Z,62.44
2022-08-25T20:34:55.671Z,62.39
2022-08-25T20:38:01.085Z,62.52
2022-08-25T20:41:10.743Z,62.80
2022-08-25T20:44:15.210Z,62.84
2022-08-25T20:47:21.076Z,63.08
2022-08-25T20:50:24.959Z,63.37
2022-08-25T20:53:29.527Z,63.33
2022-08-25T20:56:35.263Z,63.56
2022-08-25T20:59:39.067Z,63.83
2022-08-25T21:02:42.814Z,63.91
2022-08-25T21:05:46.446Z,64.28
2022-08-25T21:08:49.999Z,64.20
2022-08-25T21:12:25.461Z,64.46
2022-08-25T21:15:31.546Z,64.64
2022-08-25T21:18:36.412Z,64.64
2022-08-25T21:21:41.105Z,64.80
2022-08-25T21:24:47.501Z,64.96
2022-08-25T21:27:53.758Z,65.05
2022-08-25T21:30:57.394Z,65.14
2022-08-25T21:34:02.343Z,65.38
2022-08-25T21:37:07.606Z,65.55
2022-08-25T21:43:18.534Z,65.86
2022-08-25T21:46:26.248Z,66.00
2022-08-25T21:49:31.575Z,66.12
2022-08-25T21:52:42.300Z,66.35
2022-08-25T21:55:46.182Z,66.43
2022-08-25T21:58:51.206Z,66.68
2022-08-25T22:01:58.435Z,66.83
2022-08-25T22:05:02.070Z,66.95
2022-08-25T22:08:06.016Z,66.92
2022-08-25T22:11:11.458Z,67.00
2022-08-25T22:14:16.727Z,67.08
2022-08-25T22:17:21.090Z,67.08
2022-08-25T22:20:28.914Z,67.30
2022-08-25T22:23:33.707Z,67.25
2022-08-25T22:26:49.209Z,67.42
2022-08-25T22:29:54.551Z,67.46
2022-08-25T22:32:59.531Z,67.44
2022-08-25T22:36:03.574Z,67.36
2022-08-25T22:39:09.247Z,67.34
2022-08-25T22:42:13.087Z,67.27
2022-08-25T22:45:18.897Z,67.30
2022-08-25T22:48:23.142Z,67.29
2022-08-25T22:51:31.640Z,67.57
2022-08-25T22:54:35.291Z,67.34
2022-08-25T22:57:39.809Z,67.66
2022-08-25T23:00:44.766Z,67.47
2022-08-25T23:03:50.444Z,67.81
2022-08-25T23:06:54.253Z,67.89
2022-08-25T23:10:02.916Z,68.26
2022-08-25T23:13:07.235Z,68.19
2022-08-25T23:16:13.804Z,68.49
2022-08-25T23:19:18.816Z,68.60
2022-08-25T23:22:22.735Z,68.66
2022-08-25T23:25:27.527Z,68.80
2022-08-25T23:28:31.731Z,68.93
2022-08-25T23:31:36.861Z,69.05
2022-08-25T23:34:41.688Z,69.20
2022-08-25T23:37:46.379Z,69.38
2022-08-25T23:40:51.299Z,69.47
2022-08-25T23:43:55.737Z,69.62
2022-08-25T23:47:00.763Z,69.83
2022-08-25T23:50:04.779Z,69.90
2022-08-25T23:53:09.371Z,70.14
2022-08-25T23:56:13.026Z,70.28
2022-08-25T23:59:17.636Z,70.49
